Terminal Aerodrome Forecast
Issued by NWS Brownsville, TX

Home | Current Version | Previous Version | Text Only | Print | Product List | Glossary On
Versions: 1 2 3 4 5 6 7 8 9 10 11 12 13 14 15 16 17 18 19 20
000
FTUS44 KBRO 210539 CCA
TAFHRL
TAF COR
KHRL 210539Z 2106/2206 15008KT 5SM BR SCT025
      TEMPO 2106/2109 3SM BR BKN018
     FM210900 15008KT 6SM BR BKN025 WS020/17040KT
     FM211500 16020G27KT P6SM BKN025
     FM211800 17025G32KT P6SM BKN035
     FM212100 16020G26KT P6SM BKN030
     FM220100 15008KT P6SM BKN025=

USA.gov is the U.S. government's official web portal to all federal, state and local government web resources and services.